createdAt,value
2022-09-12T18:33:08.775Z,4.07
2022-09-12T18:35:55.825Z,4.45
2022-09-12T18:38:44.562Z,4.93
2022-09-12T18:41:31.542Z,4.32
2022-09-12T18:44:18.487Z,4.40
2022-09-12T18:47:05.643Z,4.75
2022-09-12T18:49:53.176Z,5.20
2022-09-12T18:52:40.064Z,4.63
2022-09-12T18:55:26.988Z,4.55
2022-09-12T18:58:13.847Z,4.50
2022-09-12T19:01:08.561Z,4.35
2022-09-12T19:03:55.690Z,4.40
2022-09-12T19:06:44.699Z,4.30
2022-09-12T19:09:32.740Z,4.80
2022-09-12T19:12:19.590Z,4.85
2022-09-12T19:15:08.954Z,4.82
2022-09-12T19:17:55.783Z,5.60
2022-09-12T19:20:42.747Z,5.18
2022-09-12T19:23:31.533Z,4.72
2022-09-12T19:26:19.875Z,4.90
2022-09-12T19:29:06.815Z,4.72
2022-09-12T19:31:55.467Z,4.63
2022-09-12T19:34:42.311Z,4.75
2022-09-12T19:37:29.683Z,5.57
2022-09-12T19:40:17.338Z,5.28
2022-09-12T19:43:04.216Z,5.15
2022-09-12T19:45:51.733Z,5.50
2022-09-12T19:48:38.589Z,5.03
2022-09-12T19:51:25.627Z,6.03
2022-09-12T19:54:12.831Z,5.63
2022-09-12T19:57:00.315Z,5.30
2022-09-12T19:59:47.260Z,5.40
2022-09-12T20:02:34.168Z,5.50
2022-09-12T20:05:21.400Z,5.28
2022-09-12T20:08:08.976Z,5.32
2022-09-12T20:10:57.127Z,5.47
2022-09-12T20:13:45.713Z,6.32
2022-09-12T20:16:32.656Z,5.60
2022-09-12T20:19:19.620Z,6.10
2022-09-12T20:22:06.560Z,5.43
2022-09-12T20:24:53.404Z,6.72
2022-09-12T20:27:40.253Z,7.35
2022-09-12T20:30:27.774Z,6.85
2022-09-12T20:33:14.621Z,7.38
2022-09-12T20:36:06.419Z,7.55
2022-09-12T20:38:55.823Z,7.25
2022-09-12T20:41:42.759Z,7.43
2022-09-12T20:44:29.727Z,7.95
2022-09-12T20:47:17.403Z,6.95
2022-09-12T20:50:04.979Z,7.40
2022-09-12T20:52:51.833Z,7.60
2022-09-12T20:55:38.661Z,7.80
2022-09-12T20:58:25.500Z,7.63
2022-09-12T21:01:15.011Z,6.85
2022-09-12T21:04:02.869Z,7.30
2022-09-12T21:06:49.708Z,7.72
2022-09-12T21:09:36.700Z,7.55
2022-09-12T21:12:23.852Z,7.13
2022-09-12T21:15:10.783Z,7.65
2022-09-12T21:17:57.756Z,8.00
2022-09-12T21:20:51.305Z,6.95
2022-09-12T21:23:38.292Z,7.10
2022-09-12T21:26:25.265Z,7.55
2022-09-12T21:29:12.250Z,7.53
2022-09-12T21:31:59.076Z,6.65
2022-09-12T21:34:45.988Z,6.70
2022-09-12T21:37:34.318Z,6.55
2022-09-12T21:40:21.179Z,7.07
2022-09-12T21:43:12.489Z,6.68
2022-09-12T21:46:00.023Z,7.40
2022-09-12T21:48:46.905Z,7.05
2022-09-12T21:51:33.949Z,6.20
2022-09-12T21:54:21.411Z,7.50
2022-09-12T21:57:08.457Z,6.65
2022-09-12T21:59:55.270Z,6.53
2022-09-12T22:02:42.472Z,7.10
2022-09-12T22:05:32.700Z,7.65
2022-09-12T22:08:19.537Z,6.93
2022-09-12T22:11:08.778Z,6.85
2022-09-12T22:13:55.603Z,7.90
2022-09-12T22:16:42.514Z,7.38
2022-09-12T22:19:29.363Z,8.00
2022-09-12T22:22:34.682Z,8.68
2022-09-12T22:25:23.834Z,8.18
2022-09-12T22:28:11.419Z,7.75
2022-09-12T22:30:58.771Z,7.78
2022-09-12T22:33:45.863Z,7.43
2022-09-12T22:36:35.865Z,7.47
2022-09-12T22:39:25.306Z,8.73
2022-09-12T22:42:12.142Z,7.95
2022-09-12T22:44:59.622Z,7.93
2022-09-12T22:47:46.487Z,8.93
2022-09-12T22:50:33.332Z,8.50
2022-09-12T22:53:20.152Z,8.45
2022-09-12T22:56:08.343Z,7.65
2022-09-12T22:58:55.158Z,7.85
2022-09-12T23:01:42.600Z,8.35
2022-09-12T23:04:29.443Z,8.38
2022-09-12T23:07:16.252Z,7.53
2022-09-12T23:10:04.105Z,7.65
2022-09-12T23:12:51.099Z,8.00
2022-09-12T23:15:38.164Z,8.38
2022-09-12T23:18:26.123Z,8.07
2022-09-12T23:21:15.089Z,8.57
2022-09-12T23:24:02.451Z,9.05
2022-09-12T23:26:49.296Z,8.52
2022-09-12T23:29:36.153Z,8.50
2022-09-12T23:32:23.852Z,8.57
2022-09-12T23:35:11.728Z,8.73
2022-09-12T23:37:58.560Z,8.27
2022-09-12T23:40:45.372Z,8.93
2022-09-12T23:43:33.220Z,8.70
2022-09-12T23:46:21.110Z,8.60
2022-09-12T23:49:08.188Z,9.02
2022-09-12T23:51:55.674Z,8.65
2022-09-12T23:54:42.520Z,8.25
2022-09-12T23:57:29.350Z,8.68
